ADDS METAR Data INFO
IDs: Format: Raw Decoded Include TAF

Data at: 1010 UTC 14 Dec 2017

KTZR 140955Z AUTO 33013G22KT 10SM OVC019 M04/M07 A2977 RMK AO2 T10361067
KTZR 140935Z AUTO 33016G19KT 10SM BKN021 BKN025 OVC048 M03/M07 A2975 RMK AO2 T10331067
KTZR 140915Z AUTO 33015KT 10SM OVC021 M03/M06 A2973 RMK AO2 T10261063
KTZR 140855Z AUTO 31016G22KT 10SM OVC021 M02/M06 A2971 RMK AO2 T10211056
KTZR 140835Z AUTO 32012G17KT 10SM BKN019 BKN025 OVC041 M02/M05 A2969 RMK AO2 T10171054
KTZR 140820Z AUTO 32015G20KT 10SM BKN019 BKN025 OVC039 M01/M05 A2967 RMK AO2 T10131049
KTZR 140755Z AUTO 30013G21KT 5SM -SN OVC021 M01/M04 A2964 RMK AO2 T10061041
KTZR 140735Z AUTO 30016G26KT 10SM OVC021 00/M04 A2963 RMK AO2 T10031043
KTZR 140715Z AUTO 29020G29KT 10SM OVC025 00/M04 A2960 RMK AO2 T00001042
KTZR 140655Z AUTO 28014G26KT 7SM OVC025 00/M04 A2958 RMK AO2 T00001042
KTZR 140635Z AUTO 29023G31KT 10SM OVC025 00/M04 A2956 RMK AO2 T00021041
KTZR 140615Z AUTO 29013G26KT 10SM OVC021 01/M03 A2954 RMK AO2 T00051033
KTZR 140555Z AUTO 28013G22KT 10SM OVC021 01/M03 A2953 RMK AO2 T00061031 10030 21010 400301116
KTZR 140535Z AUTO 29017G23KT 10SM OVC023 01/M03 A2951 RMK AO2 T00071030
KTZR 140515Z AUTO 29016G26KT 10SM OVC023 01/M03 A2949 RMK AO2 T00101029
KTZR 140455Z AUTO 29020G28KT 10SM SCT018 BKN023 OVC029 01/M03 A2949 RMK AO2 T00131028
KTZR 140435Z AUTO 28019G28KT 10SM SCT019 OVC026 02/M01 A2947 RMK AO2 T00171014
KTZR 140420Z AUTO 27017G27KT 10SM SCT023 BKN028 OVC034 02/M01 A2946 RMK AO2 T00231015
KTZR 140355Z AUTO 28022G31KT 10SM BKN017 BKN023 OVC029 03/M01 A2944 RMK AO2 T00271008
KTZR 140335Z AUTO 27015G20KT 7SM -RA BKN017 OVC023 03/00 A2942 RMK AO2 T00250000
KTZR 140315Z AUTO 26019G28KT 5SM -RA SCT024 BKN030 OVC036 03/M03 A2942 RMK AO2 T00281027
KTZR 140250Z AUTO 23009G16KT 10SM OVC039 02/M05 A2940 RMK AO2 T00231053
KTZR 140235Z AUTO 22011G15KT 10SM OVC041 02/M06 A2939 RMK AO2 T00221056
KTZR 140215Z AUTO 22008KT 10SM OVC044 02/M06 A2939 RMK AO2 T00191063
KTZR 140155Z AUTO 19007KT 10SM OVC041 01/M06 A2940 RMK AO2 T00061062
KTZR 140135Z AUTO 16005KT 10SM OVC039 00/M06 A2941 RMK AO2 T00021062
KTZR 140115Z AUTO 18005KT 10SM OVC039 00/M07 A2942 RMK AO2 T00041069
KTZR 132350Z 18005KT 10SM SCT039 BKN046 OVC055 M01/M08 A2045
KTZR 132250Z 19012KT 10SM SCT022 BKN030 OVC043 M02/M10 A2949
KTZR 132150Z 16010KT 10SM SCT060 M03/M10 A2950
KTZR 132050Z 15012G18KT 10SM SKC M03/M11 A2950
KTZR 131950Z 16016KT 10SM BKN095 M03/M11 A2957
KTZR 131850Z 17010KT 10SM SCT050 BKN095 OVC120 M03/M11 A2966
KTZR 131750Z 18010KT 10SM SCT050 BKN065 OVC075 M04/M11 A2972
KTZR 131647Z 18010KT 10SM SCT070 OVC090 M05/M12 A2979
KTZR 131547Z 20008KT 10SM OVC080 M05/M12 A2983
KTZR 131447Z 19010KT 10SM OVC041 M07/M11 A2986
KTZR 131347Z 21005KT 10SM OVC045 M08/M11 A2988
KTZR 131247Z 21005KT 10SM SCT065 OVC090 M08/M12 A2991
KTZR 131225Z 22005KT 10SM SCT050 BKN085 OVC090 M09/M12 A2991
KTZR 131220Z 22005 10 SCT050 BKN085 OVC090 M09/M12 2991
KTZR 131155Z AUTO 22005KT 10SM SCT050 BKN090 OVC110 M09/M12 A2992 RMK AO2 T10921122 11068 21116
KTZR 131135Z AUTO 23004KT 10SM OVC110 M10/M13 A2992 RMK AO2 T11001126
KTZR 131115Z AUTO 23004KT 10SM SCT080 OVC110 M11/M14 A2992 RMK AO2 T11141141
KTZR 131055Z AUTO 22004KT 10SM SCT080 M11/M14 A2992 RMK AO2 T11121144
KTZR 131035Z AUTO 25005KT 10SM CLR M10/M14 A2992 RMK AO2 T11011136
KTZR 131015Z AUTO 26005KT 10SM SCT040 M10/M13 A2992 RMK AO2 T10961135
KTZR 130955Z AUTO 25005KT 10SM BKN040 M09/M13 A2992 RMK AO2 T10861131
KTZR 130935Z AUTO 26007KT 10SM OVC040 M08/M13 A2992 RMK AO2 T10811128
KTZR 130915Z AUTO 27007KT 10SM OVC040 M08/M13 A2992 RMK AO2 T10761129
KTZR 130855Z AUTO 28004KT 10SM OVC040 M07/M12 A2992 RMK AO2 T10721125
KTZR 130835Z AUTO 28006KT 10SM OVC040 M07/M12 A2992 RMK AO2 T10711125
KTZR 130815Z AUTO 28007KT 10SM OVC040 M07/M12 A2993 RMK AO2 T10691125
KTZR 130755Z AUTO 28006KT 10SM OVC038 M07/M12 A2993 RMK AO2 T10681121
KTZR 130735Z AUTO 28007KT 10SM OVC038 M07/M12 A2993 RMK AO2 T10681125
KTZR 130715Z AUTO 28007KT 10SM OVC042 M07/M12 A2993 RMK AO2 T10681123
KTZR 130700Z AUTO 28005KT 10SM SCT023 OVC044 M07/M12 A2992 RMK AO2 T10681123
KTZR 130635Z AUTO 28009G15KT 10SM SCT021 OVC046 M07/M12 A2991 RMK AO2 T10681122
KTZR 130615Z AUTO 28008KT 10SM OVC048 M07/M12 A2992 RMK AO2 T10681121
KTZR 130555Z AUTO 28009KT 10SM OVC048 M07/M12 A2992 RMK AO2 T10701117 11062 21075 400341075
KTZR 130535Z AUTO 28006KT 10SM SCT026 SCT043 OVC050 M07/M12 A2992 RMK AO2 T10721117
KTZR 130515Z AUTO 29007KT 10SM BKN028 BKN038 OVC050 M07/M12 A2993 RMK AO2 T10711116
KTZR 130455Z AUTO 29008KT 10SM SCT028 SCT039 OVC050 M07/M11 A2993 RMK AO2 T10711115
KTZR 130435Z AUTO 28008KT 10SM OVC050 M07/M11 A2994 RMK AO2 T10681111
KTZR 130415Z AUTO 29008G14KT 10SM OVC050 M07/M11 A2994 RMK AO2 T10691111
KTZR 130355Z AUTO 29008KT 10SM SCT036 SCT042 OVC050 M07/M11 A2994 RMK AO2 T10681108
KTZR 130335Z AUTO 29010KT 10SM SCT019 SCT026 OVC055 M07/M10 A2994 RMK AO2 T10681101
KTZR 130315Z AUTO 30007KT 5SM -SN SCT018 BKN023 OVC044 M07/M10 A2994 RMK AO2 T10671098
KTZR 130255Z AUTO 30006KT 1 1/4SM -SN SCT013 BKN019 OVC055 M07/M09 A2994 RMK AO2 T10701090
KTZR 130235Z AUTO 29010G14KT 7SM SCT019 OVC055 M07/M10 A2994 RMK AO2 T10661099
KTZR 130215Z AUTO 30008KT 7SM -SN SCT004 BKN019 OVC055 M07/M09 A2995 RMK AO2 T10711088
KTZR 130155Z AUTO 31007G15KT 1SM SN SCT004 BKN010 OVC016 M07/M09 A2995 RMK AO2 T10701086
KTZR 130140Z AUTO 30009KT 3SM -SN SCT016 BKN027 OVC060 M07/M09 A2995 RMK AO2 T10701087
KTZR 130120Z AUTO 30010KT 2SM -SN SCT016 BKN025 OVC050 M07/M09 A2995 RMK AO2 VIS 1/4V5 T10681095
KTZR 122350Z 30009G17KT 2 1/2SM -SN SCT005 BKN021 OVC026 M07/M09 A2994 RMK SNB2248
KTZR 122336Z 31014KT 2SM -SN BKN005 OVC019 M07/M08 A2994
KTZR 122333Z 31014KT 2SM -SN SCT010 BKN029 OVC065 M06/M09 A2993
KTZR 122305Z 31010G17KT 7SM -SN BKN011 OVC019 M06/M09 A2993
KTZR 122300Z 31012G18KT 3/4SM -SN SCT011 BKN020 OVC070 M07/M09 A2993
KTZR 122250Z 30007G16KT 5SM -SN SCT011 BKN021 OVC070 M06/M09 A2992 RMK SNB09E30B48
KTZR 122232Z 30007KT 7SM SCT011 BKN018 OVC029 M06/M08 A2991
KTZR 122221Z 32010G21KT 1 1/2SM -SN BKN018 OVC022 M06/M09 A2991
KTZR 122211Z 31013G21KT 1SM -SN SCT029 OVC070 M06/M11 A2991